createdAt,value
2018-07-24T00:01:01.950Z,73.74
2018-07-24T00:03:29.724Z,73.71
2018-07-24T00:05:57.421Z,73.43
2018-07-24T00:08:25.127Z,73.49
2018-07-24T00:10:52.954Z,73.56
2018-07-24T00:13:20.638Z,75.22
2018-07-24T00:15:48.327Z,74.24
2018-07-24T00:18:16.075Z,74.40
2018-07-24T00:20:43.786Z,74.24
2018-07-24T00:23:11.488Z,74.06
2018-07-24T00:25:39.457Z,73.98
2018-07-24T00:28:07.499Z,74.24
2018-07-24T00:30:35.218Z,74.22
2018-07-24T00:33:02.942Z,74.21
2018-07-24T00:35:30.722Z,74.89
2018-07-24T00:37:58.444Z,74.65
2018-07-24T00:40:26.198Z,74.52
2018-07-24T00:42:53.889Z,74.67
2018-07-24T00:45:21.609Z,75.97
2018-07-24T00:47:49.310Z,75.20
2018-07-24T00:50:17.025Z,75.75
2018-07-24T00:52:44.709Z,75.88
2018-07-24T00:55:12.456Z,75.39
2018-07-24T00:57:40.176Z,74.83
2018-07-24T01:00:07.905Z,77.06
2018-07-24T01:02:35.710Z,76.21
2018-07-24T01:05:03.529Z,76.06
2018-07-24T01:07:35.325Z,75.85
2018-07-24T01:10:03.316Z,76.06
2018-07-24T01:12:31.315Z,75.50
2018-07-24T01:14:59.042Z,75.11
2018-07-24T01:17:26.876Z,75.32
2018-07-24T01:19:54.630Z,75.06
2018-07-24T01:22:22.475Z,74.98
2018-07-24T01:24:50.157Z,75.39
2018-07-24T01:27:17.833Z,75.36
2018-07-24T01:29:45.581Z,76.34
2018-07-24T01:32:13.281Z,75.73
2018-07-24T01:34:40.939Z,75.35
2018-07-24T01:37:08.642Z,75.28
2018-07-24T01:39:36.418Z,76.58
2018-07-24T01:42:04.198Z,77.33
2018-07-24T01:44:31.939Z,76.98
2018-07-24T01:46:59.735Z,76.18
2018-07-24T01:49:27.464Z,75.67
2018-07-24T01:51:55.357Z,75.69
2018-07-24T01:54:23.067Z,75.91
2018-07-24T01:56:50.775Z,75.49
2018-07-24T01:59:18.540Z,75.53
2018-07-24T02:01:46.354Z,75.40
2018-07-24T02:04:14.162Z,75.63
2018-07-24T02:06:41.950Z,75.55
2018-07-24T02:09:10.782Z,75.92
2018-07-24T02:11:38.510Z,76.40
2018-07-24T02:14:06.337Z,75.99
2018-07-24T02:16:34.067Z,75.69
2018-07-24T02:19:01.945Z,75.54
2018-07-24T02:21:29.838Z,76.05
2018-07-24T02:23:57.635Z,76.19
2018-07-24T02:26:25.375Z,76.03
2018-07-24T02:28:53.078Z,76.25
2018-07-24T02:31:20.824Z,75.85
2018-07-24T02:33:48.561Z,76.13
2018-07-24T02:36:16.380Z,75.81
2018-07-24T02:38:44.127Z,75.89
2018-07-24T02:41:11.820Z,75.78
2018-07-24T02:43:39.547Z,75.95
2018-07-24T02:46:07.298Z,76.37
2018-07-24T02:48:34.993Z,76.17
2018-07-24T02:51:02.747Z,76.10
2018-07-24T02:53:30.615Z,76.50
2018-07-24T02:55:58.326Z,76.21
2018-07-24T02:58:26.075Z,75.83
2018-07-24T03:00:53.768Z,77.95
2018-07-24T03:03:21.501Z,77.49
2018-07-24T03:05:49.343Z,76.82
2018-07-24T03:08:17.296Z,76.96
2018-07-24T03:10:53.196Z,78.07
2018-07-24T03:13:21.105Z,76.60
2018-07-24T03:15:48.863Z,76.58
2018-07-24T03:18:16.713Z,78.39
2018-07-24T03:20:44.507Z,79.14
2018-07-24T03:23:12.293Z,78.95
2018-07-24T03:25:40.035Z,79.26
2018-07-24T03:28:07.814Z,78.83
2018-07-24T03:30:35.607Z,79.09
2018-07-24T03:33:03.402Z,78.86
2018-07-24T03:35:31.109Z,79.00
2018-07-24T03:37:58.851Z,78.84
2018-07-24T03:40:26.607Z,78.98
2018-07-24T03:42:54.292Z,78.84
2018-07-24T03:45:22.054Z,78.11
2018-07-24T03:47:49.802Z,78.52
2018-07-24T03:50:17.602Z,78.37
2018-07-24T03:52:45.347Z,78.54
2018-07-24T03:55:13.110Z,77.50
2018-07-24T03:57:40.862Z,77.23
2018-07-24T04:00:08.691Z,77.83
2018-07-24T04:02:36.419Z,77.90
2018-07-24T04:05:04.353Z,77.99
2018-07-24T04:07:32.128Z,77.92
2018-07-24T04:09:59.846Z,77.46
2018-07-24T04:12:27.528Z,77.72
2018-07-24T04:14:55.236Z,78.16
2018-07-24T04:17:22.969Z,78.12
2018-07-24T04:19:50.738Z,78.38
2018-07-24T04:22:18.426Z,78.34
2018-07-24T04:24:46.754Z,78.42
2018-07-24T04:27:15.324Z,78.12
2018-07-24T04:29:43.181Z,78.62
2018-07-24T04:32:11.129Z,78.71
2018-07-24T04:34:38.909Z,78.58
2018-07-24T04:37:06.686Z,78.62
2018-07-24T04:39:34.426Z,78.12
2018-07-24T04:42:02.167Z,76.87
2018-07-24T04:44:29.903Z,76.52
2018-07-24T04:46:57.670Z,76.86
2018-07-24T04:49:25.446Z,75.64
2018-07-24T04:51:53.230Z,74.75
2018-07-24T04:54:20.988Z,74.48
2018-07-24T04:56:48.724Z,74.64
2018-07-24T04:59:16.447Z,74.91
2018-07-24T05:01:44.150Z,75.18
2018-07-24T05:04:11.897Z,74.82
2018-07-24T05:06:39.626Z,74.21
2018-07-24T05:09:10.336Z,74.58
2018-07-24T05:11:38.067Z,74.41
2018-07-24T05:14:06.440Z,74.54
2018-07-24T05:16:34.238Z,75.04
2018-07-24T05:19:01.954Z,74.08
2018-07-24T05:21:29.698Z,74.41
2018-07-24T05:23:57.474Z,73.98
2018-07-24T05:26:25.274Z,74.12
2018-07-24T05:28:53.077Z,73.95
2018-07-24T05:31:20.775Z,74.25
2018-07-24T05:33:48.539Z,74.47
2018-07-24T05:36:16.260Z,74.43
2018-07-24T05:38:43.989Z,73.97
2018-07-24T05:41:11.713Z,73.64
2018-07-24T05:43:39.434Z,73.79
2018-07-24T05:46:07.151Z,73.63
2018-07-24T05:51:23.516Z,73.70
2018-07-24T05:53:51.267Z,73.48
2018-07-24T05:56:18.971Z,73.51
2018-07-24T05:58:48.362Z,73.67
2018-07-24T06:01:16.987Z,73.34
2018-07-24T06:03:44.779Z,73.20
2018-07-24T06:06:12.744Z,73.04
2018-07-24T06:08:40.618Z,72.99
2018-07-24T06:11:09.161Z,72.70
2018-07-24T06:13:36.976Z,72.55
2018-07-24T06:16:04.824Z,72.57
2018-07-24T06:18:32.779Z,72.27
2018-07-24T06:21:01.635Z,72.07
2018-07-24T06:23:29.836Z,71.97
2018-07-24T06:25:57.975Z,71.72
2018-07-24T06:28:26.028Z,71.41
2018-07-24T06:30:53.870Z,71.52
2018-07-24T06:33:21.702Z,71.26
2018-07-24T06:35:49.710Z,70.93
2018-07-24T06:38:17.795Z,71.07
2018-07-24T06:40:45.567Z,70.97
2018-07-24T06:43:13.330Z,70.35
2018-07-24T06:45:41.271Z,70.63
2018-07-24T06:48:10.174Z,69.72
2018-07-24T06:50:38.201Z,70.12
2018-07-24T06:53:06.188Z,70.12
2018-07-24T06:55:34.268Z,70.00
2018-07-24T06:58:02.872Z,69.72
2018-07-24T07:00:30.902Z,69.54
2018-07-24T07:02:58.756Z,69.33
2018-07-24T07:05:26.590Z,69.48
2018-07-24T07:07:54.405Z,68.89
2018-07-24T07:10:22.590Z,68.87
2018-07-24T07:12:50.398Z,68.09
2018-07-24T07:15:18.291Z,68.85
2018-07-24T07:17:46.123Z,68.36
2018-07-24T07:20:13.994Z,68.11
2018-07-24T07:22:42.271Z,68.32
2018-07-24T07:25:10.126Z,68.31
2018-07-24T07:27:38.064Z,68.53
2018-07-24T07:30:06.349Z,68.39
2018-07-24T07:32:34.655Z,68.48
2018-07-24T07:35:03.018Z,68.09
2018-07-24T07:37:31.198Z,68.11
2018-07-24T07:39:59.382Z,67.92
2018-07-24T07:42:27.641Z,67.77
2018-07-24T07:44:55.459Z,67.86
2018-07-24T07:47:23.580Z,67.19
2018-07-24T07:49:52.363Z,67.50
2018-07-24T07:52:20.179Z,67.60
2018-07-24T07:54:48.050Z,67.45
2018-07-24T07:57:15.940Z,67.23
2018-07-24T07:59:43.819Z,67.44
2018-07-24T08:02:11.626Z,67.02
2018-07-24T08:04:39.479Z,67.02
2018-07-24T08:07:07.306Z,66.98
2018-07-24T08:09:35.167Z,66.68
2018-07-24T08:12:02.972Z,66.21
2018-07-24T08:14:32.299Z,66.84
2018-07-24T08:17:00.264Z,66.50
2018-07-24T08:19:28.316Z,66.16
2018-07-24T08:21:56.357Z,66.53
2018-07-24T08:24:24.152Z,66.12
2018-07-24T08:26:51.923Z,66.30
2018-07-24T08:29:19.759Z,65.93
2018-07-24T08:31:47.591Z,65.72
2018-07-24T08:34:15.355Z,66.21
2018-07-24T08:36:43.123Z,65.75
2018-07-24T08:39:12.022Z,66.13
2018-07-24T08:41:40.147Z,66.27
2018-07-24T08:44:07.946Z,66.38
2018-07-24T08:46:35.754Z,65.69
2018-07-24T08:49:03.681Z,66.19
2018-07-24T08:51:31.644Z,65.85
2018-07-24T08:53:59.635Z,66.19
2018-07-24T08:56:27.268Z,66.05
2018-07-24T08:58:55.145Z,66.41
2018-07-24T09:01:22.905Z,66.19
2018-07-24T09:03:50.678Z,66.15
2018-07-24T09:06:18.727Z,65.94
2018-07-24T09:08:46.574Z,66.16
2018-07-24T09:11:15.257Z,66.01
2018-07-24T09:13:43.241Z,65.76
2018-07-24T09:16:11.242Z,65.56
2018-07-24T09:18:39.883Z,65.82
2018-07-24T09:21:07.753Z,65.72
2018-07-24T09:23:36.228Z,65.87
2018-07-24T09:26:04.043Z,65.86
2018-07-24T09:28:31.831Z,65.92
2018-07-24T09:30:59.580Z,65.62
2018-07-24T09:33:27.350Z,65.80
2018-07-24T09:35:55.124Z,65.58
2018-07-24T09:38:22.875Z,65.72
2018-07-24T09:40:50.649Z,65.65
2018-07-24T09:43:18.487Z,65.61
2018-07-24T09:45:46.374Z,65.52
2018-07-24T09:48:14.124Z,65.58
2018-07-24T09:50:41.988Z,65.24
2018-07-24T09:53:09.763Z,65.51
2018-07-24T09:55:37.540Z,65.52
2018-07-24T09:58:05.317Z,65.69
2018-07-24T10:00:38.527Z,65.51
2018-07-24T10:03:06.396Z,65.58
2018-07-24T10:05:34.183Z,65.63
2018-07-24T10:08:01.937Z,65.49
2018-07-24T10:10:29.694Z,65.44
2018-07-24T10:12:57.621Z,65.45
2018-07-24T10:15:25.419Z,65.59
2018-07-24T10:17:53.768Z,65.31
2018-07-24T10:20:21.611Z,65.62
2018-07-24T10:22:49.436Z,65.62
2018-07-24T10:25:17.235Z,65.41
2018-07-24T10:27:45.112Z,65.40
2018-07-24T10:30:13.070Z,65.38
2018-07-24T10:32:40.826Z,65.48
2018-07-24T10:35:08.632Z,65.53
2018-07-24T10:37:36.436Z,65.61
2018-07-24T10:40:04.327Z,65.64
2018-07-24T10:42:32.128Z,65.59
2018-07-24T10:45:00.068Z,65.41
2018-07-24T10:47:27.890Z,65.51
2018-07-24T10:49:55.643Z,65.15
2018-07-24T10:52:23.506Z,65.34
2018-07-24T10:54:51.231Z,65.55
2018-07-24T10:57:18.971Z,66.02
2018-07-24T10:59:46.895Z,65.60
2018-07-24T11:02:14.669Z,65.48
2018-07-24T11:04:42.482Z,65.61
2018-07-24T11:07:10.291Z,65.38
2018-07-24T11:09:38.042Z,65.10
2018-07-24T11:12:06.032Z,65.57
2018-07-24T11:14:33.779Z,65.24
2018-07-24T11:17:01.576Z,65.45
2018-07-24T11:19:29.365Z,65.24
2018-07-24T11:21:57.205Z,65.00
2018-07-24T11:24:25.004Z,65.36
2018-07-24T11:26:52.774Z,65.17
2018-07-24T11:29:20.670Z,65.49
2018-07-24T11:31:48.444Z,64.61
2018-07-24T11:34:16.195Z,64.82
2018-07-24T11:36:43.964Z,65.16
2018-07-24T11:39:11.999Z,65.10
2018-07-24T11:41:39.759Z,65.18
2018-07-24T11:44:07.770Z,65.09
2018-07-24T11:46:35.589Z,65.17
2018-07-24T11:49:03.469Z,65.12
2018-07-24T11:51:31.375Z,65.27
2018-07-24T11:53:59.187Z,65.01
2018-07-24T11:56:26.963Z,64.76
2018-07-24T11:58:54.766Z,65.21
2018-07-24T12:01:22.587Z,64.98
2018-07-24T12:03:50.389Z,65.17
2018-07-24T12:06:18.258Z,65.11
2018-07-24T12:08:46.024Z,65.04
2018-07-24T12:11:13.873Z,65.25
2018-07-24T12:13:41.667Z,64.77
2018-07-24T12:16:09.539Z,64.92
2018-07-24T12:18:37.382Z,65.34
2018-07-24T12:21:05.349Z,64.79
2018-07-24T12:23:33.155Z,65.07
2018-07-24T12:26:00.915Z,65.12
2018-07-24T12:28:28.652Z,65.47
2018-07-24T12:30:56.653Z,65.30
2018-07-24T12:33:24.524Z,65.54
2018-07-24T12:35:52.401Z,65.48
2018-07-24T12:38:20.276Z,65.40
2018-07-24T12:40:48.163Z,65.47
2018-07-24T12:43:15.940Z,65.76
2018-07-24T12:45:43.718Z,65.56
2018-07-24T12:48:11.606Z,65.50
2018-07-24T12:50:39.411Z,65.33
2018-07-24T12:53:07.245Z,65.72
2018-07-24T12:55:35.049Z,65.65
2018-07-24T12:58:02.875Z,65.62
2018-07-24T13:00:30.687Z,65.18
2018-07-24T13:02:59.118Z,64.96
2018-07-24T13:05:26.984Z,65.56
2018-07-24T13:07:54.949Z,65.01
2018-07-24T13:10:22.734Z,65.73
2018-07-24T13:12:50.674Z,65.49
2018-07-24T13:15:20.553Z,65.60
2018-07-24T13:17:48.613Z,65.40
2018-07-24T13:20:16.611Z,65.52
2018-07-24T13:22:44.458Z,65.04
2018-07-24T13:25:12.292Z,65.47
2018-07-24T13:27:40.050Z,65.32
2018-07-24T13:30:07.935Z,65.47
2018-07-24T13:32:36.044Z,65.39
2018-07-24T13:35:04.174Z,65.54
2018-07-24T13:37:32.138Z,65.67
2018-07-24T13:39:59.946Z,65.63
2018-07-24T13:42:28.148Z,65.66
2018-07-24T13:44:56.112Z,65.56
2018-07-24T13:47:23.959Z,65.74
2018-07-24T13:49:52.084Z,65.60
2018-07-24T13:52:19.873Z,65.46
2018-07-24T13:54:48.941Z,65.55
2018-07-24T13:57:16.786Z,65.61
2018-07-24T13:59:44.787Z,65.55
2018-07-24T14:02:12.607Z,65.85
2018-07-24T14:04:40.487Z,65.42
2018-07-24T14:07:08.619Z,65.89
2018-07-24T14:09:36.408Z,65.88
2018-07-24T14:12:04.297Z,65.61
2018-07-24T14:14:32.330Z,65.65
2018-07-24T14:17:02.218Z,65.58
2018-07-24T14:19:30.115Z,65.80
2018-07-24T14:21:58.122Z,65.74
2018-07-24T14:24:30.000Z,65.88
2018-07-24T14:26:59.645Z,65.70
2018-07-24T14:29:27.530Z,65.74
2018-07-24T14:31:56.392Z,65.76
2018-07-24T14:34:25.392Z,65.54
2018-07-24T14:36:54.615Z,65.39
2018-07-24T14:39:27.450Z,65.66
2018-07-24T14:42:00.346Z,65.95
2018-07-24T14:44:29.984Z,65.98
2018-07-24T14:46:57.754Z,65.67
2018-07-24T14:49:25.488Z,65.59
2018-07-24T14:51:53.343Z,65.75
2018-07-24T14:54:22.394Z,65.82
2018-07-24T14:56:50.730Z,65.87
2018-07-24T14:59:19.333Z,65.65
2018-07-24T15:01:47.079Z,65.67
2018-07-24T15:04:14.823Z,65.63
2018-07-24T15:06:42.667Z,66.32
2018-07-24T15:09:11.686Z,66.36
2018-07-24T15:11:39.645Z,65.79
2018-07-24T15:14:07.381Z,66.23
2018-07-24T15:16:35.111Z,66.39
2018-07-24T15:19:03.865Z,65.97
2018-07-24T15:21:31.640Z,66.40
2018-07-24T15:23:59.395Z,66.41
2018-07-24T15:26:27.086Z,66.46
2018-07-24T15:28:54.870Z,66.32
2018-07-24T15:31:23.510Z,66.31
2018-07-24T15:33:51.241Z,66.46
2018-07-24T15:36:19.030Z,66.49
2018-07-24T15:38:46.790Z,66.81
2018-07-24T15:41:14.605Z,66.32
2018-07-24T15:43:42.383Z,66.65
2018-07-24T15:46:10.198Z,66.60
2018-07-24T15:48:37.940Z,66.71
2018-07-24T15:51:06.478Z,66.42
2018-07-24T15:53:34.330Z,66.95
2018-07-24T15:56:02.238Z,66.51
2018-07-24T15:58:29.990Z,66.89
2018-07-24T16:00:57.721Z,66.83
2018-07-24T16:03:25.507Z,66.70
2018-07-24T16:05:53.291Z,66.83
2018-07-24T16:08:21.038Z,66.70
2018-07-24T16:10:48.915Z,66.72
2018-07-24T16:13:16.796Z,66.91
2018-07-24T16:15:44.653Z,66.98
2018-07-24T16:18:12.710Z,66.81
2018-07-24T16:20:40.564Z,66.92
2018-07-24T16:23:08.517Z,66.97
2018-07-24T16:25:36.338Z,67.12
2018-07-24T16:28:04.310Z,67.20
2018-07-24T16:30:32.204Z,67.19
2018-07-24T16:33:02.914Z,66.92
2018-07-24T16:35:30.914Z,66.63
2018-07-24T16:37:58.761Z,66.84
2018-07-24T16:40:26.552Z,67.08
2018-07-24T16:42:54.387Z,66.96
2018-07-24T16:45:22.228Z,66.86
2018-07-24T16:47:50.119Z,67.28
2018-07-24T16:50:17.920Z,66.98
2018-07-24T16:52:45.642Z,66.96
2018-07-24T16:55:13.456Z,67.44
2018-07-24T16:57:41.161Z,67.53
2018-07-24T17:00:09.034Z,67.45
2018-07-24T17:02:36.838Z,67.47
2018-07-24T17:05:05.096Z,67.48
2018-07-24T17:07:33.073Z,67.71
2018-07-24T17:10:01.019Z,67.55
2018-07-24T17:12:28.870Z,67.87
2018-07-24T17:14:56.992Z,68.01
2018-07-24T17:17:24.908Z,67.52
2018-07-24T17:19:53.002Z,67.55
2018-07-24T17:22:20.951Z,68.18
2018-07-24T17:24:48.834Z,68.25
2018-07-24T17:27:17.605Z,68.12
2018-07-24T17:29:45.530Z,67.88
2018-07-24T17:34:41.163Z,68.37
2018-07-24T17:37:09.098Z,68.65
2018-07-24T17:39:37.121Z,68.16
2018-07-24T17:42:05.094Z,68.59
2018-07-24T17:44:33.026Z,68.48
2018-07-24T17:47:00.993Z,68.27
2018-07-24T17:49:29.054Z,68.39
2018-07-24T17:51:57.033Z,68.11
2018-07-24T17:54:25.122Z,68.51
2018-07-24T17:56:52.969Z,68.75
2018-07-24T17:59:20.830Z,68.39
2018-07-24T18:01:48.658Z,68.66
2018-07-24T18:04:16.618Z,68.50
2018-07-24T18:06:44.576Z,68.73
2018-07-24T18:09:13.236Z,68.56
2018-07-24T18:11:41.416Z,68.34
2018-07-24T18:14:09.945Z,68.50
2018-07-24T18:16:38.091Z,68.40
2018-07-24T18:19:06.167Z,68.52
2018-07-24T18:21:34.197Z,68.54
2018-07-24T18:24:02.402Z,68.30
2018-07-24T18:26:30.415Z,68.49
2018-07-24T18:28:58.748Z,68.43
2018-07-24T18:31:26.792Z,68.75
2018-07-24T18:33:54.827Z,68.81
2018-07-24T18:36:23.401Z,68.61
2018-07-24T18:38:52.057Z,68.73
2018-07-24T18:41:20.165Z,68.50
2018-07-24T18:43:48.525Z,68.85
2018-07-24T18:46:16.419Z,68.84
2018-07-24T18:48:44.367Z,68.98
2018-07-24T18:51:12.914Z,69.07
2018-07-24T18:53:40.761Z,69.13
2018-07-24T18:56:08.928Z,69.07
2018-07-24T18:58:37.613Z,69.14
2018-07-24T19:01:05.559Z,69.14
2018-07-24T19:03:33.474Z,69.22
2018-07-24T19:06:01.266Z,69.40
2018-07-24T19:08:28.994Z,69.45
2018-07-24T19:10:56.842Z,69.52
2018-07-24T19:13:24.625Z,69.65
2018-07-24T19:15:52.567Z,69.55
2018-07-24T19:18:20.338Z,69.66
2018-07-24T19:20:49.178Z,69.58
2018-07-24T19:23:16.970Z,69.82
2018-07-24T19:25:44.814Z,69.72
2018-07-24T19:28:12.715Z,69.78
2018-07-24T19:30:40.502Z,69.82
2018-07-24T19:33:08.277Z,70.06
2018-07-24T19:35:36.122Z,69.93
2018-07-24T19:38:03.973Z,70.11
2018-07-24T19:40:32.655Z,70.64
2018-07-24T19:43:01.411Z,70.65
2018-07-24T19:45:30.847Z,70.31
2018-07-24T19:47:59.550Z,70.47
2018-07-24T19:50:27.381Z,70.76
2018-07-24T19:52:55.202Z,70.78
2018-07-24T19:55:23.014Z,71.15
2018-07-24T19:57:50.814Z,72.08
2018-07-24T20:00:18.607Z,72.12
2018-07-24T20:02:46.403Z,72.24
2018-07-24T20:05:14.251Z,71.97
2018-07-24T20:07:42.047Z,73.33
2018-07-24T20:10:09.934Z,73.05
2018-07-24T20:12:38.899Z,72.78
2018-07-24T20:15:08.174Z,73.32
2018-07-24T20:17:36.778Z,72.71
2018-07-24T20:20:04.787Z,72.63
2018-07-24T20:22:32.554Z,72.58
2018-07-24T20:25:00.272Z,72.77
2018-07-24T20:27:28.030Z,72.97
2018-07-24T20:29:55.755Z,73.51
2018-07-24T20:32:23.565Z,73.10
2018-07-24T20:34:51.340Z,72.84
2018-07-24T20:37:19.120Z,73.55
2018-07-24T20:39:46.903Z,73.67
2018-07-24T20:42:14.693Z,73.15
2018-07-24T20:44:42.430Z,73.47
2018-07-24T20:47:10.185Z,73.44
2018-07-24T20:49:37.939Z,73.33
2018-07-24T20:52:05.717Z,73.47
2018-07-24T20:54:33.474Z,73.60
2018-07-24T20:57:01.209Z,73.08
2018-07-24T20:59:28.948Z,73.00
2018-07-24T21:01:56.660Z,73.18
2018-07-24T21:04:24.460Z,73.42
2018-07-24T21:06:52.201Z,73.36
2018-07-24T21:09:19.959Z,74.24
2018-07-24T21:11:47.726Z,74.22
2018-07-24T21:14:15.477Z,73.88
2018-07-24T21:16:43.258Z,73.88
2018-07-24T21:19:11.048Z,74.60
2018-07-24T21:21:38.872Z,74.13
2018-07-24T21:24:06.658Z,74.49
2018-07-24T21:26:34.533Z,74.04
2018-07-24T21:29:02.329Z,74.92
2018-07-24T21:31:30.093Z,75.33
2018-07-24T21:33:57.824Z,74.91
2018-07-24T21:36:27.217Z,74.57
2018-07-24T21:38:55.016Z,74.49
2018-07-24T21:41:22.835Z,74.31
2018-07-24T21:43:50.554Z,74.36
2018-07-24T21:46:18.273Z,74.88
2018-07-24T21:48:45.994Z,74.92
2018-07-24T21:51:13.690Z,75.55
2018-07-24T21:53:41.443Z,75.00
2018-07-24T21:56:09.175Z,74.87
2018-07-24T21:58:36.895Z,74.90
2018-07-24T22:01:10.214Z,75.35
2018-07-24T22:03:37.943Z,75.36
2018-07-24T22:06:05.768Z,74.94
2018-07-24T22:08:33.641Z,75.00
2018-07-24T22:11:01.611Z,75.06
2018-07-24T22:13:29.293Z,74.98
2018-07-24T22:15:57.044Z,75.92
2018-07-24T22:18:24.755Z,75.71
2018-07-24T22:20:52.421Z,75.61
2018-07-24T22:23:20.109Z,76.54
2018-07-24T22:25:47.839Z,75.65
2018-07-24T22:28:15.539Z,75.62
2018-07-24T22:30:43.270Z,76.20
2018-07-24T22:33:10.962Z,75.85
2018-07-24T22:35:38.696Z,75.65
2018-07-24T22:38:06.445Z,75.74
2018-07-24T22:40:34.145Z,75.63
2018-07-24T22:43:01.850Z,77.22
2018-07-24T22:45:29.821Z,76.75
2018-07-24T22:47:57.509Z,77.24
2018-07-24T22:50:25.175Z,77.04
2018-07-24T22:52:52.860Z,77.09
2018-07-24T22:55:20.578Z,77.46
2018-07-24T22:57:48.260Z,76.60
2018-07-24T23:00:15.969Z,77.03
2018-07-24T23:02:43.676Z,77.02
2018-07-24T23:05:11.381Z,76.97
2018-07-24T23:07:39.073Z,76.51
2018-07-24T23:10:06.895Z,76.54
2018-07-24T23:12:34.578Z,77.58
2018-07-24T23:15:02.260Z,76.80
2018-07-24T23:17:30.008Z,76.78
2018-07-24T23:19:57.717Z,77.53
2018-07-24T23:22:25.412Z,76.93
2018-07-24T23:24:53.113Z,76.80
2018-07-24T23:27:20.803Z,76.74
2018-07-24T23:29:48.482Z,76.90
2018-07-24T23:32:16.175Z,77.31
2018-07-24T23:34:43.834Z,77.43
2018-07-24T23:37:11.519Z,77.90
2018-07-24T23:39:39.193Z,77.70
2018-07-24T23:42:06.954Z,78.68
2018-07-24T23:44:34.673Z,78.87
2018-07-24T23:47:02.416Z,77.74
2018-07-24T23:49:30.118Z,77.68
2018-07-24T23:51:57.998Z,77.44
2018-07-24T23:54:25.714Z,77.44
2018-07-24T23:56:53.399Z,77.24
2018-07-24T23:59:21.135Z,77.29
